createdAt,value
2022-10-17T00:00:58.089Z,59.38
2022-10-17T00:03:25.004Z,59.35
2022-10-17T00:05:51.896Z,59.41
2022-10-17T00:08:20.084Z,59.42
2022-10-17T00:10:57.804Z,59.41
2022-10-17T00:13:25.270Z,59.48
2022-10-17T00:15:52.271Z,59.48
2022-10-17T00:18:19.159Z,59.44
2022-10-17T00:20:46.175Z,59.64
2022-10-17T00:23:13.043Z,59.84
2022-10-17T00:25:40.646Z,59.82
2022-10-17T00:28:11.296Z,59.82
2022-10-17T00:30:38.541Z,59.60
2022-10-17T00:33:05.890Z,59.91
2022-10-17T00:35:33.468Z,59.88
2022-10-17T00:38:00.335Z,59.89
2022-10-17T00:40:27.300Z,59.90
2022-10-17T00:42:54.175Z,59.83
2022-10-17T00:45:28.644Z,59.98
2022-10-17T00:48:09.767Z,59.84
2022-10-17T00:50:39.120Z,59.90
2022-10-17T00:53:08.245Z,59.79
2022-10-17T00:55:44.520Z,60.02
2022-10-17T00:58:11.516Z,60.28
2022-10-17T01:00:38.411Z,60.35
2022-10-17T01:03:05.298Z,60.48
2022-10-17T01:05:32.447Z,60.47
2022-10-17T01:07:59.568Z,60.59
2022-10-17T01:11:02.476Z,60.78
2022-10-17T01:13:41.451Z,60.75
2022-10-17T01:16:42.103Z,61.13
2022-10-17T01:19:49.045Z,60.83
2022-10-17T01:22:23.980Z,60.85
2022-10-17T01:25:19.321Z,60.84
2022-10-17T01:28:04.279Z,60.79
2022-10-17T01:31:07.665Z,60.78
2022-10-17T01:34:02.787Z,60.91
2022-10-17T01:36:40.920Z,60.67
2022-10-17T01:39:36.846Z,60.68
2022-10-17T01:42:32.828Z,60.73
2022-10-17T01:45:12.162Z,60.66
2022-10-17T01:47:41.754Z,60.63
2022-10-17T01:50:20.292Z,60.69
2022-10-17T01:52:53.622Z,60.77
2022-10-17T01:55:30.711Z,60.65
2022-10-17T01:58:07.993Z,60.64
2022-10-17T02:00:37.832Z,60.97
2022-10-17T02:03:09.312Z,60.48
2022-10-17T02:05:40.976Z,60.68
2022-10-17T02:08:08.220Z,60.82
2022-10-17T02:11:02.514Z,60.75
2022-10-17T02:14:04.779Z,60.94
2022-10-17T02:16:51.921Z,61.09
2022-10-17T02:19:58.884Z,61.35
2022-10-17T02:22:54.115Z,61.71
2022-10-17T02:25:44.760Z,61.69
2022-10-17T02:28:33.668Z,61.96
2022-10-17T02:31:22.393Z,61.99
2022-10-17T02:33:57.753Z,62.06
2022-10-17T02:36:32.629Z,61.98
2022-10-17T02:39:03.367Z,61.97
2022-10-17T02:41:31.626Z,62.09
2022-10-17T02:44:01.636Z,61.91
2022-10-17T02:46:30.659Z,61.85
2022-10-17T02:49:13.026Z,61.88
2022-10-17T02:51:50.290Z,62.00
2022-10-17T02:54:48.353Z,62.30
2022-10-17T02:57:27.666Z,62.07
2022-10-17T02:59:58.397Z,62.08
2022-10-17T03:02:25.439Z,62.00
2022-10-17T03:04:52.436Z,62.07
2022-10-17T03:07:19.300Z,62.22
2022-10-17T03:09:46.232Z,62.05
2022-10-17T03:12:13.094Z,62.28
2022-10-17T03:14:39.974Z,62.22
2022-10-17T03:17:06.898Z,62.34
2022-10-17T03:19:33.831Z,62.01
2022-10-17T03:22:00.762Z,62.10
2022-10-17T03:24:27.652Z,62.17
2022-10-17T03:26:54.556Z,62.13
2022-10-17T03:29:22.150Z,61.95
2022-10-17T03:31:49.045Z,62.20
2022-10-17T03:34:18.743Z,62.27
2022-10-17T03:36:46.097Z,62.15
2022-10-17T03:39:13.103Z,62.38
2022-10-17T03:41:40.007Z,62.17
2022-10-17T03:44:06.952Z,62.36
2022-10-17T03:46:33.869Z,62.14
2022-10-17T03:49:01.166Z,62.30
2022-10-17T03:51:28.527Z,62.42
2022-10-17T03:54:02.148Z,62.46
2022-10-17T03:56:29.144Z,62.31
2022-10-17T03:59:01.290Z,62.78
2022-10-17T04:01:30.089Z,62.43
2022-10-17T04:03:57.909Z,62.55
2022-10-17T04:06:29.026Z,62.59
2022-10-17T04:08:56.296Z,62.46
2022-10-17T04:11:32.018Z,62.66
2022-10-17T04:14:00.716Z,62.50
2022-10-17T04:16:29.400Z,62.37
2022-10-17T04:19:03.177Z,62.47
2022-10-17T04:21:35.848Z,62.50
2022-10-17T04:24:06.689Z,62.53
2022-10-17T04:26:46.134Z,62.61
2022-10-17T04:29:15.269Z,62.56
2022-10-17T04:31:44.444Z,62.32
2022-10-17T04:34:21.478Z,62.30
2022-10-17T04:36:48.463Z,62.03
2022-10-17T04:39:15.745Z,62.31
2022-10-17T04:41:42.724Z,62.06
2022-10-17T04:44:11.008Z,62.01
2022-10-17T04:46:41.660Z,61.94
2022-10-17T04:49:09.136Z,61.81
2022-10-17T04:51:38.337Z,62.10
2022-10-17T04:54:13.583Z,62.11
2022-10-17T04:56:43.282Z,62.31
2022-10-17T04:59:10.299Z,62.10
2022-10-17T05:01:39.391Z,62.02
2022-10-17T05:04:06.943Z,61.87
2022-10-17T05:06:34.634Z,61.98
2022-10-17T05:09:28.720Z,62.32
2022-10-17T05:11:55.727Z,62.15
2022-10-17T05:14:22.935Z,62.37
2022-10-17T05:16:50.028Z,61.82
2022-10-17T05:19:18.388Z,62.01
2022-10-17T05:21:47.980Z,61.75
2022-10-17T05:24:15.360Z,61.82
2022-10-17T05:26:42.258Z,62.01
2022-10-17T05:29:10.301Z,61.65
2022-10-17T05:31:42.178Z,61.93
2022-10-17T05:34:11.569Z,61.98
2022-10-17T05:36:41.783Z,61.39
2022-10-17T05:39:09.415Z,61.90
2022-10-17T05:41:37.562Z,61.82
2022-10-17T05:44:05.753Z,61.80
2022-10-17T05:46:40.766Z,62.01
2022-10-17T05:49:19.740Z,61.67
2022-10-17T05:51:59.426Z,61.49
2022-10-17T05:54:26.757Z,61.74
2022-10-17T05:56:57.165Z,61.80
2022-10-17T05:59:28.507Z,61.68
2022-10-17T06:02:04.614Z,61.57
2022-10-17T06:04:31.644Z,61.52
2022-10-17T06:07:00.974Z,60.88
2022-10-17T06:09:28.759Z,61.20
2022-10-17T06:11:56.634Z,60.83
2022-10-17T06:14:24.041Z,60.90
2022-10-17T06:16:55.241Z,60.73
2022-10-17T06:19:22.144Z,61.23
2022-10-17T06:21:49.035Z,60.61
2022-10-17T06:24:20.468Z,61.09
2022-10-17T06:26:49.733Z,60.68
2022-10-17T06:29:17.311Z,61.22
2022-10-17T06:31:48.308Z,60.98
2022-10-17T06:34:15.465Z,60.39
2022-10-17T06:36:42.575Z,60.82
2022-10-17T06:39:10.436Z,60.97
2022-10-17T06:41:44.436Z,60.65
2022-10-17T06:44:12.331Z,60.42
2022-10-17T06:46:49.407Z,60.64
2022-10-17T06:49:17.828Z,60.68
2022-10-17T06:51:52.302Z,60.66
2022-10-17T06:54:23.480Z,61.12
2022-10-17T06:57:26.222Z,60.84
2022-10-17T07:00:03.860Z,60.75
2022-10-17T07:02:39.876Z,61.04
2022-10-17T07:05:07.063Z,60.57
2022-10-17T07:07:36.104Z,61.05
2022-10-17T07:10:08.552Z,60.64
2022-10-17T07:12:37.336Z,60.74
2022-10-17T07:15:05.543Z,60.85
2022-10-17T07:17:32.674Z,60.40
2022-10-17T07:19:59.840Z,60.80
2022-10-17T07:22:26.881Z,60.68
2022-10-17T07:24:57.549Z,61.01
2022-10-17T07:27:29.560Z,61.03
2022-10-17T07:29:56.630Z,61.01
2022-10-17T07:32:32.843Z,61.49
2022-10-17T07:34:59.856Z,61.93
2022-10-17T07:37:27.012Z,62.34
2022-10-17T07:39:56.604Z,62.40
2022-10-17T07:42:24.228Z,62.17
2022-10-17T07:44:51.172Z,62.95
2022-10-17T07:47:18.648Z,62.89
2022-10-17T07:49:47.426Z,63.12
2022-10-17T07:52:16.171Z,63.30
2022-10-17T07:54:43.376Z,63.48
2022-10-17T07:57:10.567Z,63.57
2022-10-17T07:59:38.499Z,63.50
2022-10-17T08:02:07.981Z,63.55
2022-10-17T08:04:36.383Z,62.96
2022-10-17T08:07:19.110Z,63.12
2022-10-17T08:09:48.844Z,63.47
2022-10-17T08:12:15.795Z,63.27
2022-10-17T08:14:43.474Z,63.34
2022-10-17T08:17:10.692Z,63.45
2022-10-17T08:19:41.179Z,63.37
2022-10-17T08:22:08.392Z,63.57
2022-10-17T08:24:35.528Z,63.73
2022-10-17T08:27:03.913Z,63.56
2022-10-17T08:29:32.755Z,63.48
2022-10-17T08:32:01.089Z,63.43
2022-10-17T08:34:28.814Z,63.01
2022-10-17T08:36:55.684Z,62.70
2022-10-17T08:39:22.607Z,62.43
2022-10-17T08:42:05.863Z,62.57
2022-10-17T08:44:55.467Z,62.01
2022-10-17T08:47:37.602Z,61.97
2022-10-17T08:50:10.528Z,61.53
2022-10-17T08:52:57.521Z,61.34
2022-10-17T08:55:34.752Z,61.36
2022-10-17T08:58:01.735Z,61.06
2022-10-17T09:00:31.007Z,61.15
2022-10-17T09:03:37.767Z,60.88
2022-10-17T09:06:25.239Z,60.57
2022-10-17T09:09:30.133Z,60.66
2022-10-17T09:12:17.151Z,60.41
2022-10-17T09:15:22.255Z,60.42
2022-10-17T09:18:11.322Z,59.98
2022-10-17T09:20:46.044Z,59.58
2022-10-17T09:23:20.104Z,59.32
2022-10-17T09:25:57.164Z,59.21
2022-10-17T09:28:34.982Z,58.98
2022-10-17T09:31:19.087Z,58.46
2022-10-17T09:33:54.288Z,58.33
2022-10-17T09:36:34.498Z,58.20
2022-10-17T09:39:10.593Z,57.69
2022-10-17T09:41:46.429Z,57.84
2022-10-17T09:44:35.150Z,57.38
2022-10-17T09:47:35.223Z,57.49
2022-10-17T09:50:02.272Z,57.55
2022-10-17T09:52:36.757Z,57.74
2022-10-17T09:55:20.090Z,57.38
2022-10-17T09:57:56.523Z,57.52
2022-10-17T10:00:33.425Z,56.82
2022-10-17T10:03:14.826Z,56.97
2022-10-17T10:05:43.433Z,56.59
2022-10-17T10:08:19.243Z,56.46
2022-10-17T10:10:46.157Z,56.04
2022-10-17T10:13:17.326Z,56.15
2022-10-17T10:15:50.432Z,54.97
2022-10-17T10:21:14.776Z,55.32
2022-10-17T10:23:45.186Z,55.40
2022-10-17T10:26:21.537Z,55.26
2022-10-17T10:29:40.104Z,55.20
2022-10-17T10:32:22.598Z,54.89
2022-10-17T10:34:59.524Z,54.45
2022-10-17T10:37:43.493Z,54.49
2022-10-17T10:40:47.092Z,54.23
2022-10-17T10:43:25.439Z,54.34
2022-10-17T10:45:53.449Z,54.17
2022-10-17T10:48:26.047Z,54.54
2022-10-17T10:51:05.844Z,54.00
2022-10-17T10:53:43.008Z,54.11
2022-10-17T10:56:32.195Z,54.34
2022-10-17T10:59:19.098Z,54.40
2022-10-17T11:01:56.600Z,54.04
2022-10-17T11:04:46.937Z,54.08
2022-10-17T11:07:23.304Z,53.50
2022-10-17T11:10:37.884Z,53.68
2022-10-17T11:13:29.054Z,53.63
2022-10-17T11:16:22.069Z,53.44
2022-10-17T11:19:25.663Z,53.31
2022-10-17T11:22:09.223Z,53.96
2022-10-17T11:24:59.680Z,53.67
2022-10-17T11:27:29.424Z,53.84
2022-10-17T11:29:57.391Z,53.44
2022-10-17T11:32:38.010Z,53.90
2022-10-17T11:35:18.575Z,53.13
2022-10-17T11:37:53.993Z,52.98
2022-10-17T11:40:35.618Z,53.10
2022-10-17T11:43:12.411Z,52.38
2022-10-17T11:45:53.104Z,52.11
2022-10-17T11:48:34.786Z,52.04
2022-10-17T11:54:19.187Z,51.77
2022-10-17T11:57:14.862Z,51.47
2022-10-17T11:59:52.747Z,51.50
2022-10-17T12:02:32.729Z,52.21
2022-10-17T12:05:20.456Z,52.07
2022-10-17T12:08:18.095Z,51.39
2022-10-17T12:11:01.230Z,51.99
2022-10-17T12:13:28.427Z,52.21
2022-10-17T12:15:56.723Z,51.15
2022-10-17T12:18:29.893Z,51.53
2022-10-17T12:20:59.164Z,50.95
2022-10-17T12:23:31.869Z,51.67
2022-10-17T12:26:05.543Z,51.23
2022-10-17T12:28:39.475Z,51.53
2022-10-17T12:31:29.631Z,51.81
2022-10-17T12:34:02.530Z,51.11
2022-10-17T12:36:29.331Z,50.46
2022-10-17T12:39:02.004Z,50.44
2022-10-17T12:41:51.541Z,51.09
2022-10-17T12:44:21.346Z,50.49
2022-10-17T12:46:51.578Z,50.34
2022-10-17T12:49:47.819Z,50.78
2022-10-17T12:52:26.666Z,50.54
2022-10-17T12:55:12.024Z,50.39
2022-10-17T12:58:05.487Z,50.46
2022-10-17T13:00:43.805Z,50.68
2022-10-17T13:03:35.181Z,50.09
2022-10-17T13:06:06.659Z,49.74
2022-10-17T13:08:38.771Z,49.44
2022-10-17T13:11:07.896Z,49.87
2022-10-17T13:13:48.897Z,49.98
2022-10-17T13:16:59.267Z,49.87
2022-10-17T13:19:51.117Z,50.05
2022-10-17T13:22:29.022Z,50.11
2022-10-17T13:25:12.390Z,49.51
2022-10-17T13:27:39.268Z,49.62
2022-10-17T13:30:21.947Z,49.09
2022-10-17T13:32:49.037Z,49.07
2022-10-17T13:35:41.970Z,48.91
2022-10-17T13:38:13.369Z,48.63
2022-10-17T13:40:50.137Z,48.60
2022-10-17T13:43:25.892Z,49.06
2022-10-17T13:46:02.293Z,49.04
2022-10-17T13:48:38.257Z,48.69
2022-10-17T13:51:10.332Z,48.44
2022-10-17T13:53:42.441Z,48.82
2022-10-17T13:56:29.841Z,48.22
2022-10-17T13:59:06.632Z,48.32
2022-10-17T14:01:33.796Z,48.34
2022-10-17T14:04:08.940Z,48.71
2022-10-17T14:06:47.561Z,48.58
2022-10-17T14:09:27.729Z,48.76
2022-10-17T14:12:12.759Z,48.64
2022-10-17T14:15:05.158Z,48.68
2022-10-17T14:17:30.762Z,48.82
2022-10-17T14:20:33.990Z,48.70
2022-10-17T14:23:17.384Z,48.91
2022-10-17T14:25:40.990Z,49.05
2022-10-17T14:28:09.493Z,48.89
2022-10-17T14:30:55.862Z,49.30
2022-10-17T14:33:31.914Z,49.29
2022-10-17T14:36:01.625Z,49.18
2022-10-17T14:38:30.069Z,48.96
2022-10-17T14:41:41.531Z,49.24
2022-10-17T14:44:06.625Z,49.02
2022-10-17T14:46:35.969Z,48.87
2022-10-17T14:49:21.729Z,49.51
2022-10-17T14:52:24.884Z,49.48
2022-10-17T14:54:51.862Z,49.35
2022-10-17T14:57:24.063Z,49.60
2022-10-17T14:59:55.456Z,49.24
2022-10-17T15:02:29.030Z,49.47
2022-10-17T15:04:56.308Z,49.54
2022-10-17T15:07:23.926Z,49.52
2022-10-17T15:09:52.907Z,49.57
2022-10-17T15:12:24.829Z,49.98
2022-10-17T15:14:52.952Z,49.54
2022-10-17T15:17:27.511Z,49.56
2022-10-17T15:19:54.755Z,49.57
2022-10-17T15:22:21.939Z,50.06
2022-10-17T15:24:49.056Z,49.74
2022-10-17T15:27:18.629Z,50.23
2022-10-17T15:29:46.437Z,50.11
2022-10-17T15:32:13.670Z,49.80
2022-10-17T15:34:41.336Z,50.23
2022-10-17T15:37:23.361Z,50.36
2022-10-17T15:39:55.107Z,50.73
2022-10-17T15:42:30.114Z,50.28
2022-10-17T15:44:58.193Z,50.60
2022-10-17T15:47:30.886Z,50.56
2022-10-17T15:49:58.548Z,50.58
2022-10-17T15:52:26.180Z,51.00
2022-10-17T15:54:54.154Z,51.06
2022-10-17T15:57:28.778Z,50.90
2022-10-17T15:59:59.056Z,50.74
2022-10-17T16:02:26.151Z,51.06
2022-10-17T16:04:53.781Z,51.36
2022-10-17T16:07:21.543Z,51.19
2022-10-17T16:09:48.623Z,51.61
2022-10-17T16:12:28.083Z,51.91
2022-10-17T16:14:55.476Z,51.90
2022-10-17T16:17:22.352Z,52.04
2022-10-17T16:19:49.946Z,51.87
2022-10-17T16:22:36.639Z,52.48
2022-10-17T16:25:11.720Z,51.80
2022-10-17T16:27:39.113Z,52.24
2022-10-17T16:30:08.040Z,52.62
2022-10-17T16:32:35.160Z,52.28
2022-10-17T16:35:02.059Z,52.85
2022-10-17T16:37:28.939Z,52.75
2022-10-17T16:39:55.812Z,52.35
2022-10-17T16:42:22.992Z,52.77
2022-10-17T16:44:50.781Z,52.89
2022-10-17T16:47:19.164Z,52.57
2022-10-17T16:49:46.147Z,53.08
2022-10-17T16:52:13.368Z,52.64
2022-10-17T16:54:40.268Z,52.42
2022-10-17T16:57:07.161Z,52.95
2022-10-17T16:59:34.071Z,52.89
2022-10-17T17:02:00.940Z,52.65
2022-10-17T17:04:27.808Z,52.71
2022-10-17T17:06:54.691Z,52.49
2022-10-17T17:09:21.601Z,52.09
2022-10-17T17:11:48.475Z,52.06
2022-10-17T17:14:15.479Z,52.12
2022-10-17T17:16:43.376Z,52.31
2022-10-17T17:19:17.018Z,52.60
2022-10-17T17:21:49.950Z,52.53
2022-10-17T17:24:20.922Z,52.51
2022-10-17T17:26:53.694Z,52.34
2022-10-17T17:29:21.348Z,52.04
2022-10-17T17:31:48.778Z,52.60
2022-10-17T17:34:18.062Z,52.48
2022-10-17T17:36:45.394Z,52.51
2022-10-17T17:39:14.908Z,52.64
2022-10-17T17:41:43.698Z,52.55
2022-10-17T17:44:16.424Z,52.50
2022-10-17T17:46:44.512Z,51.81
2022-10-17T17:49:12.106Z,51.94
2022-10-17T17:51:41.419Z,52.77
2022-10-17T17:54:11.474Z,52.92
2022-10-17T17:56:39.279Z,52.96
2022-10-17T17:59:06.204Z,52.94
2022-10-17T18:01:39.114Z,52.71
2022-10-17T18:04:08.736Z,52.56
2022-10-17T18:06:37.550Z,53.20
2022-10-17T18:09:06.071Z,52.76
2022-10-17T18:11:33.303Z,53.31
2022-10-17T18:14:04.658Z,52.89
2022-10-17T18:16:33.974Z,53.41
2022-10-17T18:19:07.020Z,53.00
2022-10-17T18:21:35.020Z,53.11
2022-10-17T18:24:02.398Z,53.21
2022-10-17T18:26:29.296Z,53.65
2022-10-17T18:28:56.555Z,53.65
2022-10-17T18:31:28.296Z,53.59
2022-10-17T18:33:57.802Z,53.70
2022-10-17T18:36:26.205Z,53.33
2022-10-17T18:38:54.483Z,53.65
2022-10-17T18:41:24.186Z,53.84
2022-10-17T18:43:53.096Z,53.74
2022-10-17T18:46:23.531Z,53.72
2022-10-17T18:48:50.911Z,53.50
2022-10-17T18:51:21.666Z,54.07
2022-10-17T18:53:52.427Z,53.46
2022-10-17T18:56:20.770Z,53.44
2022-10-17T18:58:47.890Z,53.58
2022-10-17T19:01:21.729Z,53.73
2022-10-17T19:03:53.196Z,54.35
2022-10-17T19:06:23.856Z,54.22
2022-10-17T19:08:50.879Z,54.64
2022-10-17T19:11:21.431Z,54.57
2022-10-17T19:13:48.880Z,54.85
2022-10-17T19:16:22.772Z,54.74
2022-10-17T19:18:55.975Z,54.97
2022-10-17T19:21:23.070Z,55.21
2022-10-17T19:23:57.182Z,55.91
2022-10-17T19:26:25.647Z,55.70
2022-10-17T19:28:53.714Z,55.73
2022-10-17T19:31:26.838Z,56.04
2022-10-17T19:33:55.608Z,56.12
2022-10-17T19:36:28.940Z,56.33
2022-10-17T19:38:59.639Z,56.94
2022-10-17T19:41:26.790Z,57.12
2022-10-17T19:43:53.705Z,57.26
2022-10-17T19:46:23.955Z,57.66
2022-10-17T19:48:51.600Z,57.75
2022-10-17T19:51:21.624Z,57.97
2022-10-17T19:53:48.528Z,57.77
2022-10-17T19:56:18.566Z,57.90
2022-10-17T19:58:46.874Z,57.68
2022-10-17T20:01:18.086Z,58.58
2022-10-17T20:03:45.208Z,58.62
2022-10-17T20:06:12.728Z,58.53
2022-10-17T20:08:40.822Z,58.77
2022-10-17T20:11:17.125Z,58.67
2022-10-17T20:13:44.926Z,58.87
2022-10-17T20:16:16.366Z,58.88
2022-10-17T20:18:43.686Z,59.22
2022-10-17T20:21:14.943Z,59.39
2022-10-17T20:23:42.304Z,59.14
2022-10-17T20:26:25.889Z,59.44
2022-10-17T20:29:02.588Z,59.23
2022-10-17T20:31:30.069Z,59.29
2022-10-17T20:33:58.740Z,59.39
2022-10-17T20:36:26.318Z,59.40
2022-10-17T20:38:58.556Z,59.07
2022-10-17T20:41:26.917Z,59.43
2022-10-17T20:43:54.995Z,59.58
2022-10-17T20:46:35.830Z,59.50
2022-10-17T20:49:07.875Z,59.30
2022-10-17T20:51:36.002Z,59.35
2022-10-17T20:54:03.835Z,59.21
2022-10-17T20:56:33.019Z,59.22
2022-10-17T20:59:04.564Z,59.53
2022-10-17T21:01:33.596Z,59.43
2022-10-17T21:04:21.348Z,60.04
2022-10-17T21:06:48.293Z,60.05
2022-10-17T21:09:15.393Z,59.88
2022-10-17T21:11:43.118Z,59.96
2022-10-17T21:14:11.816Z,60.14
2022-10-17T21:16:40.235Z,59.86
2022-10-17T21:19:07.145Z,60.21
2022-10-17T21:21:39.522Z,60.15
2022-10-17T21:24:14.299Z,59.98
2022-10-17T21:26:42.693Z,60.10
2022-10-17T21:29:12.419Z,59.93
2022-10-17T21:31:42.523Z,60.40
2022-10-17T21:34:20.829Z,60.47
2022-10-17T21:36:48.386Z,60.52
2022-10-17T21:39:15.856Z,60.25
2022-10-17T21:41:44.202Z,60.43
2022-10-17T21:44:18.450Z,60.35
2022-10-17T21:46:46.392Z,60.18
2022-10-17T21:49:16.970Z,60.75
2022-10-17T21:51:44.745Z,60.48
2022-10-17T21:54:12.213Z,60.47
2022-10-17T21:56:39.078Z,60.70
2022-10-17T21:59:06.560Z,60.57
2022-10-17T22:01:37.701Z,60.77
2022-10-17T22:04:07.855Z,60.80
2022-10-17T22:06:40.157Z,61.11
2022-10-17T22:09:16.333Z,60.69
2022-10-17T22:11:47.598Z,61.22
2022-10-17T22:14:17.797Z,61.21
2022-10-17T22:16:46.740Z,61.04
2022-10-17T22:19:20.063Z,61.38
2022-10-17T22:21:47.085Z,61.35
2022-10-17T22:24:17.876Z,61.55
2022-10-17T22:26:44.931Z,61.55
2022-10-17T22:29:12.961Z,61.40
2022-10-17T22:31:40.534Z,61.86
2022-10-17T22:34:08.232Z,61.57
2022-10-17T22:36:35.812Z,61.52
2022-10-17T22:39:04.005Z,62.04
2022-10-17T22:41:31.257Z,61.75
2022-10-17T22:43:58.140Z,61.70
2022-10-17T22:46:25.523Z,61.96
2022-10-17T22:48:52.391Z,62.16
2022-10-17T22:51:19.305Z,62.20
2022-10-17T22:53:46.223Z,62.12
2022-10-17T22:56:17.773Z,62.35
2022-10-17T22:58:44.890Z,62.48
2022-10-17T23:01:18.919Z,62.27
2022-10-17T23:03:46.063Z,62.44
2022-10-17T23:06:13.276Z,62.58
2022-10-17T23:08:40.674Z,62.40
2022-10-17T23:11:08.285Z,62.55
2022-10-17T23:13:35.449Z,62.45
2022-10-17T23:16:03.627Z,62.77
2022-10-17T23:21:02.522Z,62.77
2022-10-17T23:23:29.460Z,63.04
2022-10-17T23:26:03.868Z,63.08
2022-10-17T23:28:31.988Z,62.88
2022-10-17T23:30:58.909Z,62.90
2022-10-17T23:33:25.788Z,63.15
2022-10-17T23:35:52.639Z,62.79
2022-10-17T23:38:19.516Z,63.01
2022-10-17T23:40:46.375Z,63.06
2022-10-17T23:43:13.249Z,63.21
2022-10-17T23:48:11.883Z,63.14
2022-10-17T23:50:38.743Z,63.31
2022-10-17T23:53:05.602Z,63.26
2022-10-17T23:55:32.473Z,63.36
2022-10-17T23:57:59.335Z,63.37
